KBRG/BRG METAR and TAF weather

Enter ICAO airport designator
Station Type Date Time Source
KBRG METAR 2019/07/20 19:55 UTC NOAA

KBRG 201955Z AUTO 31010KT 290V010 10SM CLR 36/03 A3003 RMK AO2 T03640028


Station Type Date Time Source
KBRG Decoded METAR 2019/07/20 19:55 UTC NOAA

Station name not available
Jul 20, 2019 - 03:55 PM EDT / 2019.07.20 1955 UTC
Wind: from the NW (310 degrees) at 12 MPH (10 KT) (direction variable):0
Visibility: 10 mile(s):0
Sky conditions: clear
Temperature: 97.5 F (36.4 C)
Dew Point: 37.0 F (2.8 C)
Relative Humidity: 12%
Pressure (altimeter): 30.03 in. Hg (1016 hPa)
ob: KBRG 201955Z AUTO 31010KT 290V010 10SM CLR 36/03 A3003 RMK AO2 T03640028
cycle: 20

Station Type Date Time Source
KBRG TAF 2012/07/03 12:12 UTC NOAA

TAF SKBRG 031000Z 031212 VRB02KT 9999 FEW017 SCT080
TEMPO 0312/0317 11005KT VCTS - DZRAFEW015CB BKN070
TEMPO 0318/0323 TSRA FEW017CB BKN070
TEMPO 0400/0402 VCTS FEW020CB
TEMPO 0402/0406 -DZ SCT015CB
TEMPO 0408/0412 00000KT 5000 BCFG FEW005 TX23/0319Z TN10/0411Z

Example: see airport list